Time;durP1;ratioP1;P1;durP2;ratioP2;P2;SDS_P1;SDS_P2;PMS_P1;PMS_P2;Temp;Humidity;BMP_temperature;BMP_pressure;BME280_temperature;BME280_humidity;BME280_pressure;Samples;Min_cycle;Max_cycle;Signal;HPM_P1;HPM_P2
2022/08/17 00:00:46;;;;;;;39.03;34.30;;;20.60;99.90;;;;;;5032420;28;20045;-57
2022/08/17 00:03:20;;;;;;;57.95;44.40;;;20.60;99.90;;;;;;5033735;28;20064;-58
2022/08/17 00:05:48;;;;;;;;;;;20.60;99.90;;;;;;5015842;28;20041;-57
2022/08/17 00:08:16;;;;;;;59.65;45.33;;;20.50;99.90;;;;;;5039058;28;20113;-57
2022/08/17 00:10:44;;;;;;;56.65;45.13;;;20.40;99.90;;;;;;5037955;28;20025;-57
2022/08/17 00:13:15;;;;;;;46.13;41.10;;;20.30;99.90;;;;;;5035727;28;20075;-57
2022/08/17 00:15:40;;;;;;;44.53;39.05;;;20.30;99.90;;;;;;5037591;28;20072;-57
2022/08/17 00:18:06;;;;;;;55.75;43.85;;;20.20;99.90;;;;;;5034929;28;20056;-59
2022/08/17 00:20:32;;;;;;;39.00;34.15;;;20.30;99.90;;;;;;5035638;28;20041;-58
2022/08/17 00:23:07;;;;;;;49.38;43.40;;;20.30;99.90;;;;;;5030593;28;20495;-59
2022/08/17 00:25:33;;;;;;;35.15;30.52;;;20.30;99.90;;;;;;5033861;28;20484;-58
2022/08/17 00:27:59;;;;;;;42.97;38.45;;;20.30;99.90;;;;;;5035475;28;20092;-59
2022/08/17 00:30:25;;;;;;;45.22;40.47;;;20.30;99.90;;;;;;5028689;28;20036;-59
2022/08/17 00:32:51;;;;;;;43.97;39.30;;;20.30;99.90;;;;;;5030999;28;20060;-59
2022/08/17 00:35:22;;;;;;;38.00;33.95;;;20.30;99.90;;;;;;5030096;28;20037;-58
2022/08/17 00:37:49;;;;;;;46.42;41.38;;;20.30;99.90;;;;;;5016253;28;20041;-58
2022/08/17 00:40:16;;;;;;;49.38;41.58;;;20.30;99.90;;;;;;5032104;28;20043;-58
2022/08/17 00:42:43;;;;;;;50.90;42.75;;;20.30;99.90;;;;;;5030501;28;20060;-57
2022/08/17 00:45:12;;;;;;;64.25;48.42;;;20.20;99.90;;;;;;5013012;28;20130;-58
2022/08/17 00:47:39;;;;;;;59.90;46.28;;;20.20;99.90;;;;;;5039523;28;20045;-59
2022/08/17 00:50:08;;;;;;;39.25;33.90;;;20.20;99.90;;;;;;5027685;28;20509;-59
2022/08/17 00:52:38;;;;;;;50.03;44.63;;;20.20;99.90;;;;;;5031051;28;20119;-58
2022/08/17 00:55:05;;;;;;;50.83;42.08;;;20.20;99.90;;;;;;5034741;28;20040;-59
2022/08/17 00:57:39;;;;;;;49.67;41.53;;;20.20;99.90;;;;;;5038147;28;20111;-58
2022/08/17 01:00:18;;;;;;;49.78;40.05;;;20.20;99.90;;;;;;5013848;28;20460;-59
2022/08/17 01:02:45;;;;;;;46.92;41.78;;;20.20;99.90;;;;;;5027335;28;20120;-59
2022/08/17 01:05:20;;;;;;;50.10;41.95;;;20.20;99.90;;;;;;5031588;28;20037;-58
2022/08/17 01:07:49;;;;;;;44.80;39.25;;;20.10;99.90;;;;;;5029255;28;20064;-59
2022/08/17 01:10:18;;;;;;;47.10;40.53;;;20.10;99.90;;;;;;5030671;28;20041;-58
2022/08/17 01:12:44;;;;;;;50.47;43.42;;;20.10;99.90;;;;;;5032913;28;20428;-58
2022/08/17 01:15:11;;;;;;;44.67;39.15;;;20.10;99.90;;;;;;5009934;28;20122;-58
2022/08/17 01:17:49;;;;;;;64.88;48.17;;;20.00;99.90;;;;;;5033334;28;20044;-58
2022/08/17 01:20:15;;;;;;;60.15;48.35;;;20.00;99.90;;;;;;5021739;28;20041;-58
2022/08/17 01:22:41;;;;;;;40.75;33.95;;;19.90;99.90;;;;;;5028329;28;20048;-59
2022/08/17 01:25:07;;;;;;;45.45;40.45;;;19.90;99.90;;;;;;5028894;28;20056;-59
2022/08/17 01:27:35;;;;;;;59.28;46.30;;;19.90;99.90;;;;;;5031602;28;20045;-58
2022/08/17 01:30:07;;;;;;;57.85;45.50;;;19.90;99.90;;;;;;5031010;28;20404;-58
2022/08/17 01:32:33;;;;;;;64.10;49.40;;;19.90;99.90;;;;;;5034073;28;20405;-59
2022/08/17 01:34:59;;;;;;;65.95;49.00;;;19.90;99.90;;;;;;5027568;28;20519;-58
2022/08/17 01:37:38;;;;;;;50.72;41.72;;;19.90;99.90;;;;;;5030257;28;20040;-58
2022/08/17 01:40:04;;;;;;;52.97;44.85;;;19.80;99.90;;;;;;5031463;28;20048;-58
2022/08/17 01:42:44;;;;;;;49.20;43.38;;;19.80;99.90;;;;;;5027115;28;20631;-59
2022/08/17 01:45:23;;;;;;;54.17;45.90;;;19.80;99.90;;;;;;5035289;28;20091;-59
2022/08/17 01:47:50;;;;;;;41.40;33.97;;;19.80;99.90;;;;;;5015585;28;20422;-59
2022/08/17 01:50:20;;;;;;;49.10;41.55;;;19.80;99.90;;;;;;5029993;28;20159;-58
2022/08/17 01:52:50;;;;;;;47.50;39.92;;;19.80;99.90;;;;;;5033108;28;20052;-59
2022/08/17 01:55:19;;;;;;;77.35;52.97;;;19.70;99.90;;;;;;5030310;28;20114;-59
2022/08/17 01:57:46;;;;;;;63.85;49.33;;;19.70;99.90;;;;;;5031043;28;20041;-58
2022/08/17 02:00:12;;;;;;;51.03;41.03;;;19.70;99.90;;;;;;5029077;28;20040;-59
2022/08/17 02:02:39;;;;;;;68.80;52.20;;;19.70;99.90;;;;;;5020374;28;20087;-59
2022/08/17 02:05:05;;;;;;;42.95;36.05;;;19.60;99.90;;;;;;5031789;28;20041;-59
2022/08/17 02:07:31;;;;;;;61.15;49.10;;;19.60;99.90;;;;;;5025701;28;20399;-59
2022/08/17 02:09:57;;;;;;;65.88;50.35;;;19.60;99.90;;;;;;5026743;28;20037;-58
2022/08/17 02:12:23;;;;;;;53.83;45.08;;;19.60;99.90;;;;;;5028205;28;20059;-58
2022/08/17 02:14:50;;;;;;;61.53;50.15;;;19.50;99.90;;;;;;5015470;28;20060;-58
2022/08/17 02:17:16;;;;;;;78.28;55.90;;;19.50;99.90;;;;;;5020360;28;20044;-57
2022/08/17 02:19:42;;;;;;;46.35;40.53;;;19.50;99.90;;;;;;5019768;28;20039;-58
2022/08/17 02:22:08;;;;;;;61.10;48.78;;;19.50;99.90;;;;;;5029635;28;20048;-59
2022/08/17 02:24:36;;;;;;;58.30;47.50;;;19.50;99.90;;;;;;5034904;28;20526;-59
2022/08/17 02:27:03;;;;;;;49.40;40.80;;;19.50;99.90;;;;;;5010728;28;20071;-58
2022/08/17 02:29:29;;;;;;;63.70;48.65;;;19.50;99.90;;;;;;5028088;28;20041;-59
2022/08/17 02:31:57;;;;;;;55.60;47.33;;;19.50;99.90;;;;;;5049275;28;20037;-58
2022/08/17 02:34:24;;;;;;;50.78;42.28;;;19.50;99.90;;;;;;5034381;28;20041;-58
2022/08/17 02:36:52;;;;;;;49.42;42.08;;;19.50;99.90;;;;;;5007698;28;20110;-58
2022/08/17 02:39:18;;;;;;;39.00;34.75;;;19.50;99.90;;;;;;5019857;28;20064;-58
2022/08/17 02:41:44;;;;;;;48.15;41.67;;;19.50;99.90;;;;;;5036919;28;20131;-58
2022/08/17 02:44:10;;;;;;;50.38;41.60;;;19.50;99.90;;;;;;5000082;28;20076;-57
2022/08/17 02:46:36;;;;;;;48.88;43.47;;;19.50;99.90;;;;;;5030390;28;20049;-58
2022/08/17 02:49:03;;;;;;;40.30;35.92;;;19.50;99.90;;;;;;5032593;28;20045;-57
2022/08/17 02:51:29;;;;;;;51.67;44.63;;;19.50;99.90;;;;;;5029921;28;20037;-57
2022/08/17 02:53:55;;;;;;;54.25;46.35;;;19.50;99.90;;;;;;5035393;28;20136;-57
2022/08/17 02:56:21;;;;;;;56.97;46.25;;;19.50;99.90;;;;;;5037157;28;20136;-58
2022/08/17 02:58:47;;;;;;;50.90;43.15;;;19.50;99.90;;;;;;5028652;28;20069;-57
2022/08/17 03:01:12;;;;;;;42.40;36.75;;;19.40;99.90;;;;;;5026198;28;20037;-58
2022/08/17 03:03:39;;;;;;;37.55;33.63;;;19.40;99.90;;;;;;5040223;28;20063;-58
2022/08/17 03:06:06;;;;;;;50.33;43.45;;;19.40;99.90;;;;;;5030761;28;20040;-58
2022/08/17 03:08:32;;;;;;;42.33;37.80;;;19.30;99.90;;;;;;5026289;28;20365;-57
2022/08/17 03:10:58;;;;;;;38.03;33.92;;;19.40;99.90;;;;;;5033229;28;20124;-57
2022/08/17 03:13:26;;;;;;;39.67;35.05;;;19.40;99.90;;;;;;5030487;28;20424;-57
2022/08/17 03:15:52;;;;;;;84.18;44.25;;;19.40;99.90;;;;;;5034376;28;20408;-58
2022/08/17 03:18:20;;;;;;;39.03;34.83;;;19.40;99.90;;;;;;5013225;28;20072;-57
2022/08/17 03:20:45;;;;;;;39.70;35.47;;;19.40;99.90;;;;;;5031176;28;20041;-57
2022/08/17 03:23:11;;;;;;;36.50;32.70;;;19.30;99.90;;;;;;4997849;28;20041;-58
2022/08/17 03:25:41;;;;;;;40.63;36.35;;;19.30;99.90;;;;;;5009705;28;20029;-58
2022/08/17 03:28:08;;;;;;;36.22;32.63;;;19.30;99.90;;;;;;5032968;28;20064;-58
2022/08/17 03:30:34;;;;;;;38.45;34.40;;;19.30;99.90;;;;;;5028656;28;20048;-58
2022/08/17 03:33:02;;;;;;;44.50;37.42;;;19.20;99.90;;;;;;5031384;28;20045;-58
2022/08/17 03:35:32;;;;;;;42.22;34.47;;;19.30;99.90;;;;;;5009419;28;20542;-58
2022/08/17 03:37:59;;;;;;;38.00;34.05;;;19.30;99.90;;;;;;5026211;28;20057;-57
2022/08/17 03:40:25;;;;;;;44.13;36.55;;;19.20;99.90;;;;;;5034346;28;20040;-58
2022/08/17 03:42:53;;;;;;;36.75;32.80;;;19.20;99.90;;;;;;5029035;28;20413;-58
2022/08/17 03:56:41;;;;;;;40.65;33.58;;;19.20;99.90;;;;;;5012875;28;20045;-58
2022/08/17 03:56:41;;;;;;;46.05;38.03;;;19.30;99.90;;;;;;5025713;28;20053;-58
2022/08/17 03:59:09;;;;;;;50.85;43.50;;;19.30;99.90;;;;;;5028377;28;20044;-56
2022/08/17 04:01:34;;;;;;;40.35;34.83;;;19.30;99.90;;;;;;5035963;22;20062;-59
2022/08/17 04:04:00;;;;;;;48.22;38.53;;;19.70;99.90;;;;;;5066287;28;20036;-59
2022/08/17 04:06:26;;;;;;;42.17;34.15;;;19.30;99.90;;;;;;5066308;28;20044;-58
2022/08/17 04:08:51;;;;;;;37.38;32.85;;;19.30;99.90;;;;;;5063845;28;20043;-58
2022/08/17 04:11:17;;;;;;;35.90;31.98;;;19.30;99.90;;;;;;5059100;28;20078;-59
2022/08/17 04:13:43;;;;;;;121.22;53.03;;;19.30;99.90;;;;;;5045566;28;20044;-59
2022/08/17 04:16:08;;;;;;;52.08;41.28;;;19.30;99.90;;;;;;5040455;28;20453;-59
2022/08/17 04:18:34;;;;;;;61.47;45.17;;;19.30;99.90;;;;;;5048565;28;20043;-58
2022/08/17 04:21:00;;;;;;;75.80;46.90;;;19.30;99.90;;;;;;5048547;28;20049;-57
2022/08/17 04:23:31;;;;;;;77.30;47.83;;;19.30;99.90;;;;;;5050629;28;20032;-59
2022/08/17 04:25:57;;;;;;;116.63;54.67;;;19.30;99.90;;;;;;5032259;28;20102;-63
2022/08/17 04:28:23;;;;;;;57.60;42.92;;;19.30;99.90;;;;;;5049859;28;20442;-61
2022/08/17 04:30:48;;;;;;;61.65;45.53;;;19.30;99.90;;;;;;5045977;28;20585;-59
2022/08/17 04:33:18;;;;;;;59.85;43.40;;;19.40;99.90;;;;;;5045079;28;20046;-60
2022/08/17 04:35:46;;;;;;;53.42;40.72;;;19.40;99.90;;;;;;5049083;28;20097;-60
2022/08/17 04:38:14;;;;;;;64.43;46.42;;;19.40;99.90;;;;;;5034080;28;20586;-59
2022/08/17 04:43:27;;;;;;;56.42;42.78;;;19.40;99.90;;;;;;5044328;28;20123;-59
2022/08/17 04:46:06;;;;;;;58.47;42.25;;;19.40;99.90;;;;;;5050212;28;20123;-59
2022/08/17 04:48:34;;;;;;;36.42;30.45;;;19.40;99.90;;;;;;5042226;28;20130;-61
2022/08/17 04:51:01;;;;;;;57.15;41.50;;;19.40;99.90;;;;;;5042860;28;20225;-59
2022/08/17 04:53:27;;;;;;;42.30;35.88;;;19.50;99.90;;;;;;5048556;28;20537;-61
2022/08/17 04:55:54;;;;;;;52.03;39.83;;;19.50;99.90;;;;;;5051713;28;20069;-61
2022/08/17 04:58:20;;;;;;;43.40;36.92;;;19.50;99.90;;;;;;5051078;28;20442;-60
2022/08/17 05:00:47;;;;;;;36.65;31.50;;;19.60;99.90;;;;;;5043236;28;20646;-61
2022/08/17 05:03:12;;;;;;;36.45;32.50;;;19.50;99.90;;;;;;5036440;28;20041;-60
2022/08/17 05:05:50;;;;;;;54.25;42.40;;;19.60;99.90;;;;;;5044596;28;20492;-60
2022/08/17 05:08:18;;;;;;;44.17;36.33;;;19.60;99.90;;;;;;5042752;28;20044;-59
2022/08/17 05:10:44;;;;;;;45.13;38.55;;;19.60;99.90;;;;;;5052971;28;20129;-60
2022/08/17 05:13:16;;;;;;;33.72;30.05;;;19.60;99.90;;;;;;5047524;28;20041;-59
2022/08/17 05:15:44;;;;;;;36.97;33.17;;;19.60;99.90;;;;;;5044260;28;20553;-60
2022/08/17 05:18:10;;;;;;;33.40;29.88;;;19.60;99.90;;;;;;5047272;28;20040;-60
2022/08/17 05:20:37;;;;;;;34.00;30.40;;;19.60;99.90;;;;;;5048875;28;20052;-60
2022/08/17 05:23:06;;;;;;;37.33;32.55;;;19.60;99.90;;;;;;5044546;28;20056;-58
2022/08/17 05:25:36;;;;;;;30.40;27.33;;;19.60;99.90;;;;;;5049054;28;20056;-60
2022/08/17 05:28:03;;;;;;;35.55;31.42;;;19.60;99.90;;;;;;5060255;28;20039;-60
2022/08/17 05:30:28;;;;;;;35.22;31.17;;;19.50;99.90;;;;;;5046687;28;20090;-58
2022/08/17 05:33:06;;;;;;;39.45;35.20;;;19.50;99.90;;;;;;5047146;28;20033;-59
2022/08/17 05:35:34;;;;;;;33.80;30.00;;;19.60;99.90;;;;;;5043761;28;20123;-59
2022/08/17 05:38:00;;;;;;;29.75;26.80;;;19.60;99.90;;;;;;5051896;28;21420;-60
2022/08/17 05:40:27;;;;;;;34.47;30.85;;;19.60;99.90;;;;;;5047552;28;20084;-59
2022/08/17 05:43:07;;;;;;;38.40;34.35;;;19.70;99.90;;;;;;5049078;28;20044;-60
2022/08/17 05:45:36;;;;;;;36.65;31.40;;;19.70;99.90;;;;;;5053028;28;20123;-60
2022/08/17 05:48:02;;;;;;;40.13;35.83;;;19.70;99.90;;;;;;5046969;28;20052;-59
2022/08/17 05:50:39;;;;;;;37.80;33.70;;;19.70;99.90;;;;;;5051093;28;20123;-60
2022/08/17 05:53:28;;;;;;;38.50;34.35;;;19.80;99.90;;;;;;5052718;28;20429;-59
2022/08/17 05:56:07;;;;;;;35.95;32.20;;;19.80;99.90;;;;;;5057274;28;20052;-60
2022/08/17 05:58:44;;;;;;;41.80;35.10;;;19.80;99.90;;;;;;5049272;28;20238;-59
2022/08/17 06:01:31;;;;;;;38.88;34.00;;;19.70;99.90;;;;;;5050340;28;20560;-59
2022/08/17 06:04:45;;;;;;;41.22;36.47;;;19.70;99.90;;;;;;5035852;28;20037;-61
2022/08/17 06:07:23;;;;;;;39.70;35.38;;;19.70;99.90;;;;;;5024828;28;20514;-59
2022/08/17 06:10:06;;;;;;;36.85;32.50;;;19.70;99.90;;;;;;5059724;28;20523;-59
2022/08/17 06:12:42;;;;;;;41.08;35.95;;;19.70;99.90;;;;;;5062378;28;20273;-59
2022/08/17 06:15:31;;;;;;;42.15;35.13;;;19.70;99.90;;;;;;5066697;28;20052;-58
2022/08/17 06:18:04;;;;;;;43.20;35.67;;;19.60;99.90;;;;;;5055524;28;20492;-60
2022/08/17 06:20:59;;;;;;;47.28;36.97;;;19.60;99.90;;;;;;5055832;28;20048;-59
2022/08/17 06:23:39;;;;;;;41.50;36.40;;;19.60;99.90;;;;;;5057785;28;20411;-59
2022/08/17 06:26:31;;;;;;;46.10;40.33;;;19.60;99.90;;;;;;5050057;28;20055;-59
2022/08/17 06:29:21;;;;;;;50.97;40.33;;;19.60;99.90;;;;;;5051319;28;20514;-59
2022/08/17 06:31:47;;;;;;;44.63;39.75;;;19.60;99.90;;;;;;5042181;28;20044;-59
2022/08/17 06:34:14;;;;;;;47.92;39.42;;;19.60;99.90;;;;;;5067368;28;20045;-60
2022/08/17 06:36:52;;;;;;;48.83;40.22;;;19.70;99.90;;;;;;5052822;28;20040;-59
2022/08/17 06:39:43;;;;;;;51.95;43.33;;;19.70;99.90;;;;;;5055897;28;20039;-60
2022/08/17 06:42:20;;;;;;;47.38;38.58;;;19.70;99.90;;;;;;5045829;28;20045;-60
2022/08/17 06:44:55;;;;;;;48.35;40.97;;;19.70;99.90;;;;;;5048840;28;20468;-60
2022/08/17 06:47:40;;;;;;;52.45;43.22;;;19.80;99.90;;;;;;5048218;28;20037;-59
2022/08/17 06:50:15;;;;;;;44.80;36.15;;;19.80;99.90;;;;;;5058329;28;20384;-60
2022/08/17 06:52:57;;;;;;;49.83;42.63;;;19.80;99.90;;;;;;5058836;28;20044;-60
2022/08/17 06:55:43;;;;;;;43.60;38.55;;;19.80;99.90;;;;;;5046385;28;20048;-59
2022/08/17 06:58:12;;;;;;;43.22;36.10;;;19.90;99.90;;;;;;5031727;28;20481;-59
2022/08/17 07:00:43;;;;;;;41.95;35.88;;;19.80;99.90;;;;;;5047196;28;20044;-60
2022/08/17 07:03:37;;;;;;;36.00;32.17;;;19.90;99.90;;;;;;5050475;28;20044;-60
2022/08/17 07:06:19;;;;;;;35.53;31.50;;;19.90;99.90;;;;;;5049106;28;20089;-60
2022/08/17 07:09:04;;;;;;;39.08;34.08;;;19.90;99.90;;;;;;5047722;28;20052;-61
2022/08/17 07:11:56;;;;;;;46.63;40.90;;;19.90;99.90;;;;;;5048057;28;20044;-60
2022/08/17 07:14:35;;;;;;;42.30;36.88;;;20.00;99.90;;;;;;5049333;28;20072;-61
2022/08/17 07:17:13;;;;;;;38.75;33.97;;;20.00;99.90;;;;;;5039750;28;20036;-61
2022/08/17 07:19:41;;;;;;;39.55;35.25;;;20.00;99.90;;;;;;5054781;28;20124;-61
2022/08/17 07:22:32;;;;;;;44.50;39.70;;;20.10;99.90;;;;;;5056176;28;20040;-60
2022/08/17 07:25:03;;;;;;;41.45;36.97;;;20.10;99.90;;;;;;5015069;28;20049;-61
2022/08/17 07:27:38;;;;;;;46.58;40.28;;;20.10;99.90;;;;;;5054255;28;20044;-60
2022/08/17 07:30:15;;;;;;;47.92;40.00;;;20.20;99.90;;;;;;5055861;28;20470;-59
2022/08/17 07:32:41;;;;;;;37.13;32.80;;;20.20;99.90;;;;;;5043861;28;20044;-60
2022/08/17 07:35:11;;;;;;;40.45;36.03;;;20.20;99.90;;;;;;5045419;28;20575;-59
2022/08/17 07:37:43;;;;;;;39.47;34.85;;;20.20;99.90;;;;;;5050183;28;20119;-59
2022/08/17 07:40:28;;;;;;;39.70;35.20;;;20.30;99.90;;;;;;5032884;28;20064;-59
2022/08/17 07:43:03;;;;;;;51.28;42.97;;;20.30;99.90;;;;;;5050135;28;20068;-60
2022/08/17 07:48:20;;;;;;;44.20;38.67;;;20.40;99.90;;;;;;5032311;28;20143;-59
2022/08/17 07:50:46;;;;;;;42.58;37.13;;;20.40;99.90;;;;;;5049071;28;20087;-61
2022/08/17 07:53:22;;;;;;;45.38;40.55;;;20.50;99.90;;;;;;5046199;28;20037;-61
2022/08/17 07:55:49;;;;;;;48.13;42.58;;;20.60;99.90;;;;;;5047354;28;20044;-61
2022/08/17 07:58:22;;;;;;;45.53;38.90;;;20.70;99.90;;;;;;5047257;28;20032;-59
2022/08/17 08:01:09;;;;;;;38.90;34.65;;;20.70;99.90;;;;;;5063971;28;20041;-59
2022/08/17 08:03:43;;;;;;;40.72;35.92;;;20.70;99.90;;;;;;5036124;28;21910;-61
2022/08/17 08:06:21;;;;;;;39.03;34.67;;;20.80;99.90;;;;;;5042206;28;20058;-61
2022/08/17 08:08:53;;;;;;;51.83;43.15;;;20.80;99.90;;;;;;5040655;28;20064;-60
2022/08/17 08:11:35;;;;;;;47.20;39.60;;;20.90;99.90;;;;;;5047349;28;20067;-59
2022/08/17 08:14:24;;;;;;;41.03;36.40;;;20.90;99.90;;;;;;5049354;28;20044;-61
2022/08/17 08:17:03;;;;;;;42.13;35.75;;;21.00;99.90;;;;;;5048641;28;20602;-60
2022/08/17 08:19:31;;;;;;;38.63;34.00;;;21.00;99.90;;;;;;5046257;28;20487;-60
2022/08/17 08:22:05;;;;;;;48.25;41.15;;;21.00;99.90;;;;;;5063516;28;20070;-59
2022/08/17 08:24:50;;;;;;;43.00;38.28;;;21.00;99.90;;;;;;5045891;28;20187;-60
2022/08/17 08:27:37;;;;;;;38.80;34.60;;;21.00;99.90;;;;;;5048063;28;20036;-60
2022/08/17 08:30:03;;;;;;;44.40;38.08;;;21.00;99.90;;;;;;5035568;28;20037;-61
2022/08/17 08:32:47;;;;;;;78.75;42.25;;;21.00;99.90;;;;;;5048032;28;20047;-62
2022/08/17 08:35:22;;;;;;;53.65;40.95;;;21.00;99.90;;;;;;5045749;28;20135;-61
2022/08/17 08:38:01;;;;;;;57.90;43.45;;;21.00;99.90;;;;;;5052851;28;20499;-62
2022/08/17 08:40:50;;;;;;;50.10;41.25;;;21.00;99.90;;;;;;5052605;28;20064;-62
2022/08/17 08:43:36;;;;;;;53.30;47.13;;;21.00;99.90;;;;;;5044316;28;20052;-60
2022/08/17 08:50:50;;;;;;;50.25;43.90;;;21.00;99.90;;;;;;5033251;28;20911;-62
2022/08/17 08:59:26;;;;;;;54.50;47.35;;;20.90;99.90;;;;;;5086183;27;20403;-62
2022/08/17 09:02:01;;;;;;;55.00;48.60;;;21.00;99.90;;;;;;5064338;28;20444;-61
2022/08/17 09:05:01;;;;;;;53.70;48.15;;;21.00;99.90;;;;;;5074332;28;20102;-62
2022/08/17 09:07:30;;;;;;;54.17;47.97;;;21.00;99.90;;;;;;5070277;28;20636;-62
2022/08/17 09:10:07;;;;;;;53.75;47.97;;;21.00;99.90;;;;;;5050409;28;20044;-64
2022/08/17 09:12:52;;;;;;;54.28;47.15;;;21.00;99.90;;;;;;5052361;28;20129;-65
2022/08/17 09:15:50;;;;;;;48.47;43.33;;;20.90;99.90;;;;;;5054610;28;20415;-64
2022/08/17 09:18:26;;;;;;;45.65;40.70;;;20.90;99.90;;;;;;5063178;28;20083;-64
2022/08/17 09:20:58;;;;;;;52.13;44.72;;;20.90;99.90;;;;;;5074469;28;20033;-64
2022/08/17 09:23:37;;;;;;;49.67;44.15;;;20.90;99.90;;;;;;5075303;28;20210;-64
2022/08/17 09:26:22;;;;;;;50.53;45.10;;;20.90;99.90;;;;;;5055886;28;20056;-64
2022/08/17 09:29:00;;;;;;;48.83;43.50;;;20.90;99.90;;;;;;5070643;28;20074;-63
2022/08/17 09:31:42;;;;;;;45.85;40.85;;;20.90;99.90;;;;;;5042488;28;20093;-63
2022/08/17 09:34:15;;;;;;;47.90;43.00;;;20.90;99.90;;;;;;5056622;28;20553;-63
2022/08/17 09:36:59;;;;;;;47.45;42.42;;;21.00;99.90;;;;;;5051352;28;20052;-64
2022/08/17 09:40:17;;;;;;;49.83;43.92;;;21.00;99.90;;;;;;5050570;28;20039;-64
2022/08/17 09:42:49;;;;;;;47.00;41.95;;;21.00;99.90;;;;;;5013358;28;20487;-64
2022/08/17 09:45:22;;;;;;;42.75;38.42;;;21.00;99.90;;;;;;5060791;28;20051;-64
2022/08/17 09:48:13;;;;;;;45.70;40.92;;;21.00;99.90;;;;;;5046573;28;20117;-64
2022/08/17 09:50:52;;;;;;;45.55;40.75;;;21.00;99.90;;;;;;5074117;28;20055;-66
2022/08/17 09:53:18;;;;;;;37.55;33.40;;;20.90;99.90;;;;;;5061346;28;20483;-66
2022/08/17 09:55:52;;;;;;;43.20;37.58;;;20.90;99.90;;;;;;5036199;28;20040;-65
2022/08/17 09:58:41;;;;;;;39.00;34.92;;;20.90;99.90;;;;;;5050880;28;20490;-64
2022/08/17 10:04:07;;;;;;;36.05;32.50;;;20.90;99.90;;;;;;5062026;28;20171;-59
2022/08/17 10:06:46;;;;;;;40.72;36.72;;;21.00;99.90;;;;;;5009740;28;20064;-61
2022/08/17 10:09:34;;;;;;;36.58;32.85;;;21.00;99.90;;;;;;5042372;28;20041;-62
2022/08/17 10:12:35;;;;;;;37.25;33.50;;;21.10;99.90;;;;;;5038024;28;20044;-61
2022/08/17 10:15:16;;;;;;;35.47;32.10;;;21.20;99.90;;;;;;5039058;28;20074;-60
2022/08/17 10:18:20;;;;;;;35.53;32.05;;;21.60;99.90;;;;;;5025195;28;20036;-60
2022/08/17 10:20:51;;;;;;;37.67;33.95;;;21.30;99.90;;;;;;5026359;28;20075;-61
2022/08/17 10:26:17;;;;;;;37.70;33.65;;;21.40;99.90;;;;;;5040392;28;20048;-59
2022/08/17 10:28:54;;;;;;;36.40;32.85;;;21.50;99.90;;;;;;5034111;28;20364;-62
2022/08/17 10:31:27;;;;;;;35.50;31.70;;;21.60;99.90;;;;;;5035052;28;20076;-61
2022/08/17 10:34:17;;;;;;;34.80;31.45;;;21.70;99.90;;;;;;5041181;28;20054;-62
2022/08/17 10:37:14;;;;;;;33.20;30.00;;;21.70;99.90;;;;;;5034321;28;20045;-59
2022/08/17 10:40:18;;;;;;;32.83;29.65;;;21.70;99.90;;;;;;5036618;28;20075;-62
2022/08/17 10:42:52;;;;;;;33.08;29.75;;;21.80;99.90;;;;;;4984048;28;20157;-61
2022/08/17 10:45:24;;;;;;;30.90;27.80;;;21.80;99.90;;;;;;5029189;28;20048;-61
2022/08/17 10:48:25;;;;;;;29.38;26.58;;;21.90;99.90;;;;;;5124520;27;20370;-63
2022/08/17 10:51:08;;;;;;;28.02;25.25;;;22.00;99.90;;;;;;5104417;28;20048;-62
2022/08/17 10:53:33;;;;;;;27.03;23.53;;;22.10;99.90;;;;;;5105936;28;20075;-63
2022/08/17 10:56:11;;;;;;;25.77;22.95;;;22.00;99.90;;;;;;5085431;28;20129;-62
2022/08/17 10:58:56;;;;;;;21.65;19.60;;;22.10;99.90;;;;;;5099789;28;20043;-62
2022/08/17 11:01:28;;;;;;;22.83;20.33;;;22.10;99.90;;;;;;5114722;28;20517;-62
2022/08/17 11:03:57;;;;;;;20.20;18.02;;;22.20;99.90;;;;;;5100839;28;20050;-63
2022/08/17 11:06:40;;;;;;;19.58;17.67;;;22.10;99.90;;;;;;5102692;28;20176;-60
2022/08/17 11:09:25;;;;;;;17.83;15.98;;;22.10;99.90;;;;;;5097448;28;20035;-63
2022/08/17 11:12:05;;;;;;;18.33;16.60;;;22.10;99.90;;;;;;5087029;28;20071;-61
2022/08/17 11:14:56;;;;;;;18.35;16.65;;;22.20;99.90;;;;;;5083413;28;20036;-62
2022/08/17 11:17:34;;;;;;;21.58;16.30;;;22.30;99.90;;;;;;5099367;28;20042;-63
2022/08/17 11:20:16;;;;;;;18.35;16.65;;;22.30;99.90;;;;;;5101786;28;20040;-62
2022/08/17 11:23:10;;;;;;;18.45;16.77;;;22.30;99.90;;;;;;5100927;28;20040;-63
2022/08/17 11:25:40;;;;;;;19.30;17.48;;;22.40;99.90;;;;;;5103038;28;20040;-63
2022/08/17 11:28:25;;;;;;;18.25;16.40;;;22.40;99.90;;;;;;5100290;28;20050;-62
2022/08/17 11:30:55;;;;;;;17.13;15.43;;;22.40;99.90;;;;;;5102919;28;20069;-62
2022/08/17 11:33:44;;;;;;;16.70;15.00;;;22.40;99.90;;;;;;5098779;28;20050;-62
2022/08/17 11:36:30;;;;;;;16.85;14.75;;;22.40;99.90;;;;;;5085404;28;20043;-62
2022/08/17 11:39:17;;;;;;;16.85;14.43;;;22.40;99.90;;;;;;5101294;28;20104;-61
2022/08/17 11:42:16;;;;;;;13.90;12.65;;;22.40;99.90;;;;;;5094931;28;20060;-63
2022/08/17 11:44:56;;;;;;;14.68;13.00;;;22.40;99.90;;;;;;5099338;28;20043;-60
2022/08/17 11:53:37;;;;;;;17.50;15.90;;;22.10;99.90;;;;;;5104022;28;20047;-62
2022/08/17 11:56:30;;;;;;;20.75;18.58;;;22.20;99.90;;;;;;5102202;28;20039;-63
2022/08/17 11:58:57;;;;;;;21.35;19.33;;;22.30;99.90;;;;;;5095004;28;20044;-63
2022/08/17 12:01:25;;;;;;;20.38;18.30;;;22.40;99.90;;;;;;5079988;28;20052;-62
2022/08/17 12:03:55;;;;;;;19.00;17.00;;;22.40;99.90;;;;;;5092074;28;20422;-63
2022/08/17 12:06:32;;;;;;;19.40;17.50;;;22.60;99.90;;;;;;5084249;28;20044;-63
2022/08/17 12:08:58;;;;;;;20.38;18.27;;;22.70;99.90;;;;;;5091859;28;20043;-62
2022/08/17 12:11:36;;;;;;;19.15;17.30;;;22.60;99.90;;;;;;5089345;28;20045;-63
2022/08/17 12:14:03;;;;;;;18.08;16.17;;;22.70;99.90;;;;;;5084305;28;20102;-63
2022/08/17 12:16:29;;;;;;;16.45;14.85;;;22.70;99.90;;;;;;5056888;28;20079;-63
2022/08/17 12:19:01;;;;;;;15.50;13.90;;;22.80;99.90;;;;;;5022474;28;20047;-63
2022/08/17 12:21:53;;;;;;;15.75;14.15;;;22.80;99.90;;;;;;5073070;28;20029;-63
2022/08/17 12:25:00;;;;;;;20.33;15.80;;;22.80;99.90;;;;;;5071619;28;20552;-63
2022/08/17 12:27:32;;;;;;;17.35;15.65;;;22.80;99.90;;;;;;5010985;28;20060;-61
2022/08/17 12:30:02;;;;;;;17.90;15.27;;;22.70;99.90;;;;;;4986962;28;20528;-61
2022/08/17 12:32:32;;;;;;;17.00;15.30;;;22.70;99.90;;;;;;5048814;28;20543;-61
2022/08/17 12:34:59;;;;;;;17.70;15.88;;;22.70;99.90;;;;;;5071123;28;20044;-63
2022/08/17 12:37:30;;;;;;;18.52;16.63;;;22.70;99.90;;;;;;5067436;28;20049;-64
2022/08/17 12:40:30;;;;;;;17.42;15.77;;;22.80;99.90;;;;;;5075344;28;20044;-60
2022/08/17 12:43:06;;;;;;;19.02;17.13;;;22.80;99.90;;;;;;5026933;28;20064;-62
2022/08/17 12:45:34;;;;;;;18.30;16.40;;;22.70;99.90;;;;;;5056170;28;20063;-62
2022/08/17 12:48:06;;;;;;;16.88;15.18;;;22.70;99.90;;;;;;5072067;28;20137;-61
2022/08/17 12:50:44;;;;;;;17.63;14.95;;;22.60;99.90;;;;;;5069051;28;20768;-62
2022/08/17 12:53:26;;;;;;;18.42;16.48;;;22.60;99.90;;;;;;5051778;28;20060;-60
2022/08/17 12:55:53;;;;;;;18.15;16.38;;;22.60;99.90;;;;;;5049738;28;20041;-60
2022/08/17 12:58:29;;;;;;;19.05;17.15;;;22.70;99.90;;;;;;5069217;28;20078;-61
2022/08/17 13:01:07;;;;;;;19.58;17.60;;;22.70;99.90;;;;;;5068228;28;20029;-61
2022/08/17 13:03:48;;;;;;;19.05;15.77;;;22.70;99.90;;;;;;5070052;28;20108;-60
2022/08/17 13:06:32;;;;;;;16.02;14.52;;;22.70;99.90;;;;;;5047892;28;20123;-61
2022/08/17 13:09:10;;;;;;;18.77;16.95;;;22.80;99.90;;;;;;5064122;28;20106;-62
2022/08/17 13:11:44;;;;;;;19.00;17.13;;;22.90;99.90;;;;;;5062048;28;20036;-62
2022/08/17 13:14:10;;;;;;;18.45;16.33;;;22.90;99.90;;;;;;5064858;28;20072;-61
2022/08/17 13:16:36;;;;;;;16.55;14.13;;;22.90;99.90;;;;;;5069537;28;20072;-62
2022/08/17 13:19:13;;;;;;;18.00;14.60;;;22.90;99.90;;;;;;5070560;28;20538;-62
2022/08/17 13:21:47;;;;;;;16.50;14.90;;;22.90;99.90;;;;;;5086848;28;20059;-64
2022/08/17 13:24:33;;;;;;;16.67;15.07;;;22.80;99.90;;;;;;5068222;28;20040;-62
2022/08/17 13:27:02;;;;;;;15.40;13.70;;;22.90;99.90;;;;;;5069891;28;20063;-63
2022/08/17 13:29:48;;;;;;;16.58;14.55;;;22.90;99.90;;;;;;5070162;28;20076;-63
2022/08/17 13:32:22;;;;;;;14.32;12.88;;;22.80;99.90;;;;;;5070471;28;20040;-63
2022/08/17 13:34:53;;;;;;;16.27;14.68;;;22.80;99.90;;;;;;5071730;28;20039;-64
2022/08/17 13:37:25;;;;;;;14.57;13.07;;;22.70;99.90;;;;;;5086923;28;20054;-64
2022/08/17 13:40:10;;;;;;;17.02;14.27;;;22.60;99.90;;;;;;5085421;28;20040;-60